sensor_id;sensor_type;location;lat;lon;timestamp;temperature;humidity
32877;DHT22;19226;51.600;8.034;2023-03-01T00:00:30;0.50;99.90
32877;DHT22;19226;51.600;8.034;2023-03-01T00:03:15;0.50;99.90
32877;DHT22;19226;51.600;8.034;2023-03-01T00:06:00;0.50;99.90
32877;DHT22;19226;51.600;8.034;2023-03-01T00:08:46;0.50;99.90
32877;DHT22;19226;51.600;8.034;2023-03-01T00:11:32;0.50;99.90
32877;DHT22;19226;51.600;8.034;2023-03-01T00:14:16;0.60;99.90
32877;DHT22;19226;51.600;8.034;2023-03-01T00:17:01;0.50;99.90
32877;DHT22;19226;51.600;8.034;2023-03-01T00:19:46;0.50;99.90
32877;DHT22;19226;51.600;8.034;2023-03-01T00:22:32;0.50;99.90
32877;DHT22;19226;51.600;8.034;2023-03-01T00:25:17;0.40;99.90
32877;DHT22;19226;51.600;8.034;2023-03-01T00:28:02;0.40;99.90
32877;DHT22;19226;51.600;8.034;2023-03-01T00:30:48;0.30;99.90
32877;DHT22;19226;51.600;8.034;2023-03-01T00:33:33;0.30;99.90
32877;DHT22;19226;51.600;8.034;2023-03-01T00:36:17;0.30;99.90
32877;DHT22;19226;51.600;8.034;2023-03-01T00:39:04;0.30;99.90
32877;DHT22;19226;51.600;8.034;2023-03-01T00:41:48;0.20;99.90
32877;DHT22;19226;51.600;8.034;2023-03-01T00:44:33;0.20;99.90
32877;DHT22;19226;51.600;8.034;2023-03-01T00:47:18;0.20;99.90
32877;DHT22;19226;51.600;8.034;2023-03-01T00:50:02;0.10;99.90
32877;DHT22;19226;51.600;8.034;2023-03-01T00:52:51;0.10;99.90
32877;DHT22;19226;51.600;8.034;2023-03-01T00:55:36;0.10;99.90
32877;DHT22;19226;51.600;8.034;2023-03-01T00:58:20;0.00;99.90
32877;DHT22;19226;51.600;8.034;2023-03-01T01:01:10;0.00;99.90
32877;DHT22;19226;51.600;8.034;2023-03-01T01:04:07;-0.10;99.90
32877;DHT22;19226;51.600;8.034;2023-03-01T01:06:52;-0.30;99.90
32877;DHT22;19226;51.600;8.034;2023-03-01T01:09:36;-0.40;99.90
32877;DHT22;19226;51.600;8.034;2023-03-01T01:12:21;-0.40;99.90
32877;DHT22;19226;51.600;8.034;2023-03-01T01:15:06;-0.50;99.90
32877;DHT22;19226;51.600;8.034;2023-03-01T01:17:50;-0.50;99.90
32877;DHT22;19226;51.600;8.034;2023-03-01T01:20:35;-0.50;99.90
32877;DHT22;19226;51.600;8.034;2023-03-01T01:23:21;-0.50;99.90
32877;DHT22;19226;51.600;8.034;2023-03-01T01:26:14;-0.50;99.90
32877;DHT22;19226;51.600;8.034;2023-03-01T01:28:59;-0.50;99.90
32877;DHT22;19226;51.600;8.034;2023-03-01T01:31:44;-0.50;99.90
32877;DHT22;19226;51.600;8.034;2023-03-01T01:34:29;-0.50;99.90
32877;DHT22;19226;51.600;8.034;2023-03-01T01:37:14;-0.50;99.90
32877;DHT22;19226;51.600;8.034;2023-03-01T01:39:59;-0.50;99.90
32877;DHT22;19226;51.600;8.034;2023-03-01T01:42:43;-0.50;99.90
32877;DHT22;19226;51.600;8.034;2023-03-01T01:45:31;-0.50;99.90
32877;DHT22;19226;51.600;8.034;2023-03-01T01:48:20;-0.50;99.90
32877;DHT22;19226;51.600;8.034;2023-03-01T01:51:09;-0.50;99.90
32877;DHT22;19226;51.600;8.034;2023-03-01T01:53:59;-0.50;99.90
32877;DHT22;19226;51.600;8.034;2023-03-01T01:56:49;-0.50;99.90
32877;DHT22;19226;51.600;8.034;2023-03-01T01:59:36;-0.50;99.90
32877;DHT22;19226;51.600;8.034;2023-03-01T02:02:21;-0.50;99.90
32877;DHT22;19226;51.600;8.034;2023-03-01T02:05:24;-0.50;99.90
32877;DHT22;19226;51.600;8.034;2023-03-01T02:08:11;-0.60;99.90
32877;DHT22;19226;51.600;8.034;2023-03-01T02:10:58;-0.60;99.90
32877;DHT22;19226;51.600;8.034;2023-03-01T02:13:44;-0.70;99.90
32877;DHT22;19226;51.600;8.034;2023-03-01T02:16:29;-0.70;99.90
32877;DHT22;19226;51.600;8.034;2023-03-01T02:19:34;-0.70;99.90
32877;DHT22;19226;51.600;8.034;2023-03-01T02:22:27;-0.70;99.90
32877;DHT22;19226;51.600;8.034;2023-03-01T02:31:00;-0.70;99.90
32877;DHT22;19226;51.600;8.034;2023-03-01T02:34:05;-0.80;99.90
32877;DHT22;19226;51.600;8.034;2023-03-01T02:39:53;-0.80;99.90
32877;DHT22;19226;51.600;8.034;2023-03-01T02:42:54;-0.90;99.90
32877;DHT22;19226;51.600;8.034;2023-03-01T02:45:50;-0.90;99.90
32877;DHT22;19226;51.600;8.034;2023-03-01T02:48:47;-1.00;99.90
32877;DHT22;19226;51.600;8.034;2023-03-01T02:55:06;-1.10;99.90
32877;DHT22;19226;51.600;8.034;2023-03-01T02:57:52;-1.10;99.90
32877;DHT22;19226;51.600;8.034;2023-03-01T03:00:40;-1.10;99.90
32877;DHT22;19226;51.600;8.034;2023-03-01T03:03:31;-1.10;99.90
32877;DHT22;19226;51.600;8.034;2023-03-01T03:06:16;-1.10;99.90
32877;DHT22;19226;51.600;8.034;2023-03-01T03:09:01;-1.10;99.90
32877;DHT22;19226;51.600;8.034;2023-03-01T03:11:46;-1.20;99.90
32877;DHT22;19226;51.600;8.034;2023-03-01T03:14:31;-1.20;99.90
32877;DHT22;19226;51.600;8.034;2023-03-01T03:17:19;-1.20;99.90
32877;DHT22;19226;51.600;8.034;2023-03-01T03:20:05;-1.20;99.90
32877;DHT22;19226;51.600;8.034;2023-03-01T03:22:52;-1.30;99.90
32877;DHT22;19226;51.600;8.034;2023-03-01T03:25:36;-1.30;99.90
32877;DHT22;19226;51.600;8.034;2023-03-01T03:28:22;-1.30;99.90
32877;DHT22;19226;51.600;8.034;2023-03-01T03:31:07;-1.30;99.90
32877;DHT22;19226;51.600;8.034;2023-03-01T03:33:53;-1.30;99.90
32877;DHT22;19226;51.600;8.034;2023-03-01T03:36:38;-1.30;99.90
32877;DHT22;19226;51.600;8.034;2023-03-01T03:39:23;-1.30;99.90
32877;DHT22;19226;51.600;8.034;2023-03-01T03:42:07;-1.30;99.90
32877;DHT22;19226;51.600;8.034;2023-03-01T03:44:52;-1.30;99.90
32877;DHT22;19226;51.600;8.034;2023-03-01T03:47:36;-1.40;99.90
32877;DHT22;19226;51.600;8.034;2023-03-01T03:50:21;-1.50;99.90
32877;DHT22;19226;51.600;8.034;2023-03-01T03:53:11;-1.50;99.90
32877;DHT22;19226;51.600;8.034;2023-03-01T03:55:55;-1.50;99.90
32877;DHT22;19226;51.600;8.034;2023-03-01T03:58:40;-1.50;99.90
32877;DHT22;19226;51.600;8.034;2023-03-01T04:01:25;-1.50;99.90
32877;DHT22;19226;51.600;8.034;2023-03-01T04:04:09;-1.50;99.90
32877;DHT22;19226;51.600;8.034;2023-03-01T04:06:53;-1.60;99.90
32877;DHT22;19226;51.600;8.034;2023-03-01T04:09:38;-1.60;99.90
32877;DHT22;19226;51.600;8.034;2023-03-01T04:12:22;-1.70;99.90
32877;DHT22;19226;51.600;8.034;2023-03-01T04:15:07;-1.70;99.90
32877;DHT22;19226;51.600;8.034;2023-03-01T04:17:59;-1.70;99.90
32877;DHT22;19226;51.600;8.034;2023-03-01T04:20:44;-1.70;99.90
32877;DHT22;19226;51.600;8.034;2023-03-01T04:23:29;-1.80;99.90
32877;DHT22;19226;51.600;8.034;2023-03-01T04:26:14;-1.80;99.90
32877;DHT22;19226;51.600;8.034;2023-03-01T04:28:58;-1.80;99.90
32877;DHT22;19226;51.600;8.034;2023-03-01T04:31:43;-1.80;99.90
32877;DHT22;19226;51.600;8.034;2023-03-01T04:34:27;-1.90;99.90
32877;DHT22;19226;51.600;8.034;2023-03-01T04:37:12;-1.90;99.90
32877;DHT22;19226;51.600;8.034;2023-03-01T04:39:56;-1.90;99.90
32877;DHT22;19226;51.600;8.034;2023-03-01T04:42:41;-1.90;99.90
32877;DHT22;19226;51.600;8.034;2023-03-01T04:45:26;-1.90;99.90
32877;DHT22;19226;51.600;8.034;2023-03-01T04:48:12;-1.90;99.90
32877;DHT22;19226;51.600;8.034;2023-03-01T04:50:57;-2.00;99.90
32877;DHT22;19226;51.600;8.034;2023-03-01T04:53:42;-2.00;99.90
32877;DHT22;19226;51.600;8.034;2023-03-01T04:56:27;-2.00;99.90
32877;DHT22;19226;51.600;8.034;2023-03-01T04:59:12;-2.00;99.90
32877;DHT22;19226;51.600;8.034;2023-03-01T05:01:57;-2.00;99.90
32877;DHT22;19226;51.600;8.034;2023-03-01T05:04:41;-2.10;99.90
32877;DHT22;19226;51.600;8.034;2023-03-01T05:07:25;-2.10;99.90
32877;DHT22;19226;51.600;8.034;2023-03-01T05:10:10;-2.10;99.90
32877;DHT22;19226;51.600;8.034;2023-03-01T05:12:55;-2.10;99.90
32877;DHT22;19226;51.600;8.034;2023-03-01T05:15:41;-2.20;99.90
32877;DHT22;19226;51.600;8.034;2023-03-01T05:18:27;-2.20;99.90
32877;DHT22;19226;51.600;8.034;2023-03-01T05:21:14;-2.20;99.90
32877;DHT22;19226;51.600;8.034;2023-03-01T05:24:01;-2.20;99.90
32877;DHT22;19226;51.600;8.034;2023-03-01T05:26:46;-2.30;99.90
32877;DHT22;19226;51.600;8.034;2023-03-01T05:29:32;-2.30;99.90
32877;DHT22;19226;51.600;8.034;2023-03-01T05:32:18;-2.30;99.90
32877;DHT22;19226;51.600;8.034;2023-03-01T05:35:03;-2.30;99.90
32877;DHT22;19226;51.600;8.034;2023-03-01T05:37:50;-2.40;99.90
32877;DHT22;19226;51.600;8.034;2023-03-01T05:40:35;-2.40;99.90
32877;DHT22;19226;51.600;8.034;2023-03-01T05:43:20;-2.40;99.90
32877;DHT22;19226;51.600;8.034;2023-03-01T05:46:04;-2.40;99.90
32877;DHT22;19226;51.600;8.034;2023-03-01T05:48:49;-2.40;99.90
32877;DHT22;19226;51.600;8.034;2023-03-01T05:51:34;-2.50;99.90
32877;DHT22;19226;51.600;8.034;2023-03-01T05:54:19;-2.40;99.90
32877;DHT22;19226;51.600;8.034;2023-03-01T05:57:04;-2.50;99.90
32877;DHT22;19226;51.600;8.034;2023-03-01T05:59:48;-2.50;99.90
32877;DHT22;19226;51.600;8.034;2023-03-01T06:02:33;-2.60;99.90
32877;DHT22;19226;51.600;8.034;2023-03-01T06:05:17;-2.60;99.90
32877;DHT22;19226;51.600;8.034;2023-03-01T06:08:03;-2.60;99.90
32877;DHT22;19226;51.600;8.034;2023-03-01T06:10:47;-2.70;99.90
32877;DHT22;19226;51.600;8.034;2023-03-01T06:13:32;-2.60;99.90
32877;DHT22;19226;51.600;8.034;2023-03-01T06:16:16;-2.60;99.90
32877;DHT22;19226;51.600;8.034;2023-03-01T06:19:01;-2.70;99.90
32877;DHT22;19226;51.600;8.034;2023-03-01T06:21:45;-2.60;99.90
32877;DHT22;19226;51.600;8.034;2023-03-01T06:24:30;-2.60;99.90
32877;DHT22;19226;51.600;8.034;2023-03-01T06:27:14;-2.70;99.90
32877;DHT22;19226;51.600;8.034;2023-03-01T06:30:00;-2.70;99.90
32877;DHT22;19226;51.600;8.034;2023-03-01T06:32:45;-2.70;99.90
32877;DHT22;19226;51.600;8.034;2023-03-01T06:35:30;-2.70;99.90
32877;DHT22;19226;51.600;8.034;2023-03-01T06:38:15;-2.70;99.90
32877;DHT22;19226;51.600;8.034;2023-03-01T06:41:02;-2.70;99.90
32877;DHT22;19226;51.600;8.034;2023-03-01T06:43:47;-2.60;99.90
32877;DHT22;19226;51.600;8.034;2023-03-01T06:46:32;-2.60;99.90
32877;DHT22;19226;51.600;8.034;2023-03-01T06:49:17;-2.60;99.90
32877;DHT22;19226;51.600;8.034;2023-03-01T06:52:02;-2.60;99.90
32877;DHT22;19226;51.600;8.034;2023-03-01T06:54:46;-2.60;99.90
32877;DHT22;19226;51.600;8.034;2023-03-01T06:57:31;-2.60;99.90
32877;DHT22;19226;51.600;8.034;2023-03-01T07:00:16;-2.60;99.90
32877;DHT22;19226;51.600;8.034;2023-03-01T07:03:01;-2.60;99.90
32877;DHT22;19226;51.600;8.034;2023-03-01T07:05:49;-2.50;99.90
32877;DHT22;19226;51.600;8.034;2023-03-01T07:08:33;-2.50;99.90
32877;DHT22;19226;51.600;8.034;2023-03-01T07:11:18;-2.50;99.90
32877;DHT22;19226;51.600;8.034;2023-03-01T07:14:03;-2.50;99.90
32877;DHT22;19226;51.600;8.034;2023-03-01T07:16:47;-2.50;99.90
32877;DHT22;19226;51.600;8.034;2023-03-01T07:19:32;-2.40;99.90
32877;DHT22;19226;51.600;8.034;2023-03-01T07:22:16;-2.40;99.90
32877;DHT22;19226;51.600;8.034;2023-03-01T07:25:01;-2.40;99.90
32877;DHT22;19226;51.600;8.034;2023-03-01T07:27:51;-2.30;99.90
32877;DHT22;19226;51.600;8.034;2023-03-01T07:30:36;-2.20;99.90
32877;DHT22;19226;51.600;8.034;2023-03-01T07:33:21;-2.20;99.90
32877;DHT22;19226;51.600;8.034;2023-03-01T07:36:05;-2.10;99.90
32877;DHT22;19226;51.600;8.034;2023-03-01T07:38:50;-2.10;99.90
32877;DHT22;19226;51.600;8.034;2023-03-01T07:41:36;-2.00;99.90
32877;DHT22;19226;51.600;8.034;2023-03-01T07:44:20;-1.90;99.90
32877;DHT22;19226;51.600;8.034;2023-03-01T07:47:04;-1.80;99.90
32877;DHT22;19226;51.600;8.034;2023-03-01T07:49:49;-1.80;99.90
32877;DHT22;19226;51.600;8.034;2023-03-01T07:52:34;-1.60;99.90
32877;DHT22;19226;51.600;8.034;2023-03-01T07:55:18;-1.60;99.90
32877;DHT22;19226;51.600;8.034;2023-03-01T07:58:03;-1.50;99.90
32877;DHT22;19226;51.600;8.034;2023-03-01T08:00:48;-1.40;99.90
32877;DHT22;19226;51.600;8.034;2023-03-01T08:03:33;-1.30;99.90
32877;DHT22;19226;51.600;8.034;2023-03-01T08:06:18;-1.30;99.90
32877;DHT22;19226;51.600;8.034;2023-03-01T08:09:03;-1.20;99.90
32877;DHT22;19226;51.600;8.034;2023-03-01T08:11:47;-1.10;99.90
32877;DHT22;19226;51.600;8.034;2023-03-01T08:14:32;-0.90;99.90
32877;DHT22;19226;51.600;8.034;2023-03-01T08:17:16;-0.80;99.90
32877;DHT22;19226;51.600;8.034;2023-03-01T08:20:02;-0.70;99.90
32877;DHT22;19226;51.600;8.034;2023-03-01T08:22:48;-0.60;99.90
32877;DHT22;19226;51.600;8.034;2023-03-01T08:25:32;-0.50;99.90
32877;DHT22;19226;51.600;8.034;2023-03-01T08:28:17;-0.40;99.90
32877;DHT22;19226;51.600;8.034;2023-03-01T08:31:02;-0.30;99.90
32877;DHT22;19226;51.600;8.034;2023-03-01T08:33:48;-0.20;99.90
32877;DHT22;19226;51.600;8.034;2023-03-01T08:36:40;0.00;99.90
32877;DHT22;19226;51.600;8.034;2023-03-01T08:39:25;0.10;99.90
32877;DHT22;19226;51.600;8.034;2023-03-01T08:42:09;0.20;99.90
32877;DHT22;19226;51.600;8.034;2023-03-01T08:44:54;0.30;99.90
32877;DHT22;19226;51.600;8.034;2023-03-01T08:47:39;0.40;99.90
32877;DHT22;19226;51.600;8.034;2023-03-01T08:50:23;0.60;99.90
32877;DHT22;19226;51.600;8.034;2023-03-01T08:53:08;0.70;99.90
32877;DHT22;19226;51.600;8.034;2023-03-01T08:55:53;0.80;99.90
32877;DHT22;19226;51.600;8.034;2023-03-01T08:58:38;0.90;99.90
32877;DHT22;19226;51.600;8.034;2023-03-01T09:01:26;1.00;99.90
32877;DHT22;19226;51.600;8.034;2023-03-01T09:04:12;1.20;99.90
32877;DHT22;19226;51.600;8.034;2023-03-01T09:06:56;1.30;99.90
32877;DHT22;19226;51.600;8.034;2023-03-01T09:09:41;1.40;99.90
32877;DHT22;19226;51.600;8.034;2023-03-01T09:12:26;1.50;99.90
32877;DHT22;19226;51.600;8.034;2023-03-01T09:15:11;1.70;99.90
32877;DHT22;19226;51.600;8.034;2023-03-01T09:17:55;1.90;99.90
32877;DHT22;19226;51.600;8.034;2023-03-01T09:20:40;2.00;99.90
32877;DHT22;19226;51.600;8.034;2023-03-01T09:23:24;2.10;99.90
32877;DHT22;19226;51.600;8.034;2023-03-01T09:26:11;2.20;99.90
32877;DHT22;19226;51.600;8.034;2023-03-01T09:28:56;2.30;99.90
32877;DHT22;19226;51.600;8.034;2023-03-01T09:31:41;2.40;99.90
32877;DHT22;19226;51.600;8.034;2023-03-01T09:34:27;2.50;99.90
32877;DHT22;19226;51.600;8.034;2023-03-01T09:37:12;2.70;99.90
32877;DHT22;19226;51.600;8.034;2023-03-01T09:39:56;2.80;99.90
32877;DHT22;19226;51.600;8.034;2023-03-01T09:43:11;2.90;99.90
32877;DHT22;19226;51.600;8.034;2023-03-01T09:45:53;3.00;99.90
32877;DHT22;19226;51.600;8.034;2023-03-01T09:48:43;3.10;99.90
32877;DHT22;19226;51.600;8.034;2023-03-01T09:51:34;3.30;99.90
32877;DHT22;19226;51.600;8.034;2023-03-01T09:54:21;3.50;99.90
32877;DHT22;19226;51.600;8.034;2023-03-01T09:57:12;3.60;99.90
32877;DHT22;19226;51.600;8.034;2023-03-01T10:00:29;3.60;99.90
32877;DHT22;19226;51.600;8.034;2023-03-01T10:03:26;3.80;99.90
32877;DHT22;19226;51.600;8.034;2023-03-01T10:06:20;3.90;99.90
32877;DHT22;19226;51.600;8.034;2023-03-01T10:09:11;4.10;99.90
32877;DHT22;19226;51.600;8.034;2023-03-01T10:11:57;4.30;99.90
32877;DHT22;19226;51.600;8.034;2023-03-01T10:15:07;4.40;99.90
32877;DHT22;19226;51.600;8.034;2023-03-01T10:18:06;4.50;99.90
32877;DHT22;19226;51.600;8.034;2023-03-01T10:21:01;4.50;99.90
32877;DHT22;19226;51.600;8.034;2023-03-01T10:23:46;4.70;99.90
32877;DHT22;19226;51.600;8.034;2023-03-01T10:32:43;5.00;99.90
32877;DHT22;19226;51.600;8.034;2023-03-01T10:35:29;5.00;99.90
32877;DHT22;19226;51.600;8.034;2023-03-01T10:38:15;5.10;99.90
32877;DHT22;19226;51.600;8.034;2023-03-01T10:41:06;5.30;99.90
32877;DHT22;19226;51.600;8.034;2023-03-01T10:44:00;5.50;99.90
32877;DHT22;19226;51.600;8.034;2023-03-01T10:46:44;5.50;99.90
32877;DHT22;19226;51.600;8.034;2023-03-01T10:49:29;5.60;99.90
32877;DHT22;19226;51.600;8.034;2023-03-01T10:52:20;5.70;99.90
32877;DHT22;19226;51.600;8.034;2023-03-01T10:55:27;5.80;99.90
32877;DHT22;19226;51.600;8.034;2023-03-01T10:58:18;5.90;99.90
32877;DHT22;19226;51.600;8.034;2023-03-01T11:01:26;6.00;99.90
32877;DHT22;19226;51.600;8.034;2023-03-01T11:04:11;6.10;99.90
32877;DHT22;19226;51.600;8.034;2023-03-01T11:07:00;6.20;99.90
32877;DHT22;19226;51.600;8.034;2023-03-01T11:09:45;6.40;99.90
32877;DHT22;19226;51.600;8.034;2023-03-01T11:12:29;6.50;99.90
32877;DHT22;19226;51.600;8.034;2023-03-01T11:15:27;6.60;99.90
32877;DHT22;19226;51.600;8.034;2023-03-01T11:18:20;6.70;99.90
32877;DHT22;19226;51.600;8.034;2023-03-01T11:21:07;6.80;99.90
32877;DHT22;19226;51.600;8.034;2023-03-01T11:23:53;6.90;99.90
32877;DHT22;19226;51.600;8.034;2023-03-01T11:26:40;7.00;99.90
32877;DHT22;19226;51.600;8.034;2023-03-01T11:33:01;7.20;99.90
32877;DHT22;19226;51.600;8.034;2023-03-01T11:39:10;7.30;99.90
32877;DHT22;19226;51.600;8.034;2023-03-01T11:42:06;7.30;99.90
32877;DHT22;19226;51.600;8.034;2023-03-01T11:44:59;7.40;99.90
32877;DHT22;19226;51.600;8.034;2023-03-01T11:51:18;7.50;99.90
32877;DHT22;19226;51.600;8.034;2023-03-01T12:01:32;7.80;99.90
32877;DHT22;19226;51.600;8.034;2023-03-01T12:04:59;7.90;99.90
32877;DHT22;19226;51.600;8.034;2023-03-01T12:14:45;8.10;99.90
32877;DHT22;19226;51.600;8.034;2023-03-01T12:24:26;8.30;99.90
32877;DHT22;19226;51.600;8.034;2023-03-01T12:47:00;8.70;99.90
32877;DHT22;19226;51.600;8.034;2023-03-01T12:49:28;8.70;99.90
32877;DHT22;19226;51.600;8.034;2023-03-01T12:55:26;8.80;99.90
32877;DHT22;19226;51.600;8.034;2023-03-01T12:58:26;8.90;99.90
32877;DHT22;19226;51.600;8.034;2023-03-01T13:11:14;8.90;99.90
32877;DHT22;19226;51.600;8.034;2023-03-01T13:13:27;8.90;99.90
32877;DHT22;19226;51.600;8.034;2023-03-01T13:19:21;9.00;99.90
32877;DHT22;19226;51.600;8.034;2023-03-01T13:22:25;9.10;99.90
32877;DHT22;19226;51.600;8.034;2023-03-01T13:25:15;9.30;99.90
32877;DHT22;19226;51.600;8.034;2023-03-01T13:34:04;9.50;99.90
32877;DHT22;19226;51.600;8.034;2023-03-01T13:36:51;9.80;99.90
32877;DHT22;19226;51.600;8.034;2023-03-01T13:39:40;9.80;99.90
32877;DHT22;19226;51.600;8.034;2023-03-01T13:42:30;9.70;99.90
32877;DHT22;19226;51.600;8.034;2023-03-01T13:48:29;9.50;99.90
32877;DHT22;19226;51.600;8.034;2023-03-01T13:51:15;9.50;99.90
32877;DHT22;19226;51.600;8.034;2023-03-01T13:54:00;9.60;99.90
32877;DHT22;19226;51.600;8.034;2023-03-01T13:56:45;9.80;99.90
32877;DHT22;19226;51.600;8.034;2023-03-01T13:59:29;9.70;99.90
32877;DHT22;19226;51.600;8.034;2023-03-01T14:02:15;9.70;99.90
32877;DHT22;19226;51.600;8.034;2023-03-01T14:05:00;9.60;99.90
32877;DHT22;19226;51.600;8.034;2023-03-01T14:07:51;9.70;99.90
32877;DHT22;19226;51.600;8.034;2023-03-01T14:17:20;9.90;99.90
32877;DHT22;19226;51.600;8.034;2023-03-01T14:23:01;10.10;99.90
32877;DHT22;19226;51.600;8.034;2023-03-01T14:25:57;10.10;99.90
32877;DHT22;19226;51.600;8.034;2023-03-01T14:28:42;10.10;99.90
32877;DHT22;19226;51.600;8.034;2023-03-01T14:31:39;10.20;99.90
32877;DHT22;19226;51.600;8.034;2023-03-01T14:34:26;10.40;99.90
32877;DHT22;19226;51.600;8.034;2023-03-01T14:37:32;10.50;99.90
32877;DHT22;19226;51.600;8.034;2023-03-01T14:40:26;10.60;99.90
32877;DHT22;19226;51.600;8.034;2023-03-01T14:43:18;10.70;99.90
32877;DHT22;19226;51.600;8.034;2023-03-01T14:46:05;10.80;99.30
32877;DHT22;19226;51.600;8.034;2023-03-01T14:48:53;10.80;99.00
32877;DHT22;19226;51.600;8.034;2023-03-01T14:51:41;10.80;99.90
32877;DHT22;19226;51.600;8.034;2023-03-01T14:54:37;10.90;98.60
32877;DHT22;19226;51.600;8.034;2023-03-01T14:57:25;10.80;97.80
32877;DHT22;19226;51.600;8.034;2023-03-01T15:00:23;10.80;98.80
32877;DHT22;19226;51.600;8.034;2023-03-01T15:03:16;10.80;98.20
32877;DHT22;19226;51.600;8.034;2023-03-01T15:06:04;10.80;97.70
32877;DHT22;19226;51.600;8.034;2023-03-01T15:08:54;10.80;97.90
32877;DHT22;19226;51.600;8.034;2023-03-01T15:11:41;10.90;97.90
32877;DHT22;19226;51.600;8.034;2023-03-01T15:14:40;10.70;98.50
32877;DHT22;19226;51.600;8.034;2023-03-01T15:17:36;10.70;99.10
32877;DHT22;19226;51.600;8.034;2023-03-01T15:20:26;10.70;96.50
32877;DHT22;19226;51.600;8.034;2023-03-01T15:23:23;10.60;95.80
32877;DHT22;19226;51.600;8.034;2023-03-01T15:26:27;10.60;95.80
32877;DHT22;19226;51.600;8.034;2023-03-01T15:29:21;10.70;95.20
32877;DHT22;19226;51.600;8.034;2023-03-01T15:32:35;10.60;96.90
32877;DHT22;19226;51.600;8.034;2023-03-01T15:35:40;10.80;97.30
32877;DHT22;19226;51.600;8.034;2023-03-01T15:41:30;10.70;98.00
32877;DHT22;19226;51.600;8.034;2023-03-01T15:44:29;10.70;97.60
32877;DHT22;19226;51.600;8.034;2023-03-01T15:47:29;10.70;96.50
32877;DHT22;19226;51.600;8.034;2023-03-01T15:50:20;10.90;96.30
32877;DHT22;19226;51.600;8.034;2023-03-01T15:53:11;11.10;95.60
32877;DHT22;19226;51.600;8.034;2023-03-01T15:55:56;11.00;95.30
32877;DHT22;19226;51.600;8.034;2023-03-01T15:58:40;11.10;95.30
32877;DHT22;19226;51.600;8.034;2023-03-01T16:01:26;11.10;93.90
32877;DHT22;19226;51.600;8.034;2023-03-01T16:04:12;11.10;94.30
32877;DHT22;19226;51.600;8.034;2023-03-01T16:07:00;11.00;96.10
32877;DHT22;19226;51.600;8.034;2023-03-01T16:09:45;10.70;95.80
32877;DHT22;19226;51.600;8.034;2023-03-01T16:12:30;10.60;96.50
32877;DHT22;19226;51.600;8.034;2023-03-01T16:15:22;10.30;95.80
32877;DHT22;19226;51.600;8.034;2023-03-01T16:18:08;10.00;96.60
32877;DHT22;19226;51.600;8.034;2023-03-01T16:20:55;9.70;97.50
32877;DHT22;19226;51.600;8.034;2023-03-01T16:23:40;9.60;98.90
32877;DHT22;19226;51.600;8.034;2023-03-01T16:26:25;9.40;99.50
32877;DHT22;19226;51.600;8.034;2023-03-01T16:29:09;9.40;99.90
32877;DHT22;19226;51.600;8.034;2023-03-01T16:31:54;9.20;99.90
32877;DHT22;19226;51.600;8.034;2023-03-01T16:34:38;9.00;99.90
32877;DHT22;19226;51.600;8.034;2023-03-01T16:37:23;8.90;99.90
32877;DHT22;19226;51.600;8.034;2023-03-01T16:40:41;8.80;99.90
32877;DHT22;19226;51.600;8.034;2023-03-01T16:43:32;8.70;99.90
32877;DHT22;19226;51.600;8.034;2023-03-01T16:46:19;8.60;99.90
32877;DHT22;19226;51.600;8.034;2023-03-01T16:49:03;8.40;99.90
32877;DHT22;19226;51.600;8.034;2023-03-01T16:51:48;8.30;99.90
32877;DHT22;19226;51.600;8.034;2023-03-01T16:54:33;8.20;99.90
32877;DHT22;19226;51.600;8.034;2023-03-01T16:57:17;8.00;99.90
32877;DHT22;19226;51.600;8.034;2023-03-01T17:00:06;8.00;99.90
32877;DHT22;19226;51.600;8.034;2023-03-01T17:02:52;7.90;99.90
32877;DHT22;19226;51.600;8.034;2023-03-01T17:05:40;7.80;99.90
32877;DHT22;19226;51.600;8.034;2023-03-01T17:08:24;7.60;99.90
32877;DHT22;19226;51.600;8.034;2023-03-01T17:11:15;7.50;99.90
32877;DHT22;19226;51.600;8.034;2023-03-01T17:14:00;7.30;99.90
32877;DHT22;19226;51.600;8.034;2023-03-01T17:16:45;7.20;99.90
32877;DHT22;19226;51.600;8.034;2023-03-01T17:19:30;7.10;99.90
32877;DHT22;19226;51.600;8.034;2023-03-01T17:22:16;7.10;99.90
32877;DHT22;19226;51.600;8.034;2023-03-01T17:25:01;7.00;99.90
32877;DHT22;19226;51.600;8.034;2023-03-01T17:27:46;6.90;99.90
32877;DHT22;19226;51.600;8.034;2023-03-01T17:30:30;6.80;99.90
32877;DHT22;19226;51.600;8.034;2023-03-01T17:33:15;6.70;99.90
32877;DHT22;19226;51.600;8.034;2023-03-01T17:36:00;6.70;99.90
32877;DHT22;19226;51.600;8.034;2023-03-01T17:38:45;6.60;99.90
32877;DHT22;19226;51.600;8.034;2023-03-01T17:41:30;6.50;99.90
32877;DHT22;19226;51.600;8.034;2023-03-01T17:44:14;6.40;99.90
32877;DHT22;19226;51.600;8.034;2023-03-01T17:47:00;6.30;99.90
32877;DHT22;19226;51.600;8.034;2023-03-01T17:49:44;6.30;99.90
32877;DHT22;19226;51.600;8.034;2023-03-01T17:52:29;6.20;99.90
32877;DHT22;19226;51.600;8.034;2023-03-01T17:55:14;6.10;99.90
32877;DHT22;19226;51.600;8.034;2023-03-01T17:57:58;6.00;99.90
32877;DHT22;19226;51.600;8.034;2023-03-01T18:00:43;6.00;99.90
32877;DHT22;19226;51.600;8.034;2023-03-01T18:03:28;5.90;99.90
32877;DHT22;19226;51.600;8.034;2023-03-01T18:06:15;5.90;99.90
32877;DHT22;19226;51.600;8.034;2023-03-01T18:09:00;5.80;99.90
32877;DHT22;19226;51.600;8.034;2023-03-01T18:11:44;5.80;99.90
32877;DHT22;19226;51.600;8.034;2023-03-01T18:14:29;5.70;99.90
32877;DHT22;19226;51.600;8.034;2023-03-01T18:17:16;5.70;99.90
32877;DHT22;19226;51.600;8.034;2023-03-01T18:20:01;5.60;99.90
32877;DHT22;19226;51.600;8.034;2023-03-01T18:22:45;5.40;99.90
32877;DHT22;19226;51.600;8.034;2023-03-01T18:25:30;5.30;99.90
32877;DHT22;19226;51.600;8.034;2023-03-01T18:28:15;5.30;99.90
32877;DHT22;19226;51.600;8.034;2023-03-01T18:31:02;5.20;99.90
32877;DHT22;19226;51.600;8.034;2023-03-01T18:33:48;5.20;99.90
32877;DHT22;19226;51.600;8.034;2023-03-01T18:36:34;5.00;99.90
32877;DHT22;19226;51.600;8.034;2023-03-01T18:39:19;5.00;99.90
32877;DHT22;19226;51.600;8.034;2023-03-01T18:42:04;4.90;99.90
32877;DHT22;19226;51.600;8.034;2023-03-01T18:44:48;4.90;99.90
32877;DHT22;19226;51.600;8.034;2023-03-01T18:47:33;4.90;99.90
32877;DHT22;19226;51.600;8.034;2023-03-01T18:50:18;4.80;99.90
32877;DHT22;19226;51.600;8.034;2023-03-01T18:53:02;4.80;99.90
32877;DHT22;19226;51.600;8.034;2023-03-01T18:55:46;4.80;99.90
32877;DHT22;19226;51.600;8.034;2023-03-01T18:58:31;4.70;99.90
32877;DHT22;19226;51.600;8.034;2023-03-01T19:01:18;4.60;99.90
32877;DHT22;19226;51.600;8.034;2023-03-01T19:04:02;4.60;99.90
32877;DHT22;19226;51.600;8.034;2023-03-01T19:06:47;4.60;99.90
32877;DHT22;19226;51.600;8.034;2023-03-01T19:09:31;4.60;99.90
32877;DHT22;19226;51.600;8.034;2023-03-01T19:12:17;4.50;99.90
32877;DHT22;19226;51.600;8.034;2023-03-01T19:15:03;4.40;99.90
32877;DHT22;19226;51.600;8.034;2023-03-01T19:17:48;4.40;99.90
32877;DHT22;19226;51.600;8.034;2023-03-01T19:20:33;4.40;99.90
32877;DHT22;19226;51.600;8.034;2023-03-01T19:23:17;4.30;99.90
32877;DHT22;19226;51.600;8.034;2023-03-01T19:26:04;4.30;99.90
32877;DHT22;19226;51.600;8.034;2023-03-01T19:28:49;4.20;99.90
32877;DHT22;19226;51.600;8.034;2023-03-01T19:31:34;4.10;99.90